Time;durP1;ratioP1;P1;durP2;ratioP2;P2;SDS_P1;SDS_P2;PMS_P1;PMS_P2;Temp;Humidity;BMP_temperature;BMP_pressure;BME280_temperature;BME280_humidity;BME280_pressure;Samples;Min_cycle;Max_cycle;Signal;HPM_P1;HPM_P2
2022/08/12 00:44:23;;;;;;;6.50;4.13;;;20.70;51.40;;;;;;5010173;28;20480;-72
2022/08/12 00:46:55;;;;;;;5.20;4.33;;;20.70;52.00;;;;;;5011127;28;20532;-74
2022/08/12 00:49:22;;;;;;;5.30;3.70;;;20.50;52.20;;;;;;5021619;28;20935;-72
2022/08/12 00:52:06;;;;;;;6.30;3.93;;;20.50;52.60;;;;;;5017889;28;20508;-71
2022/08/12 00:54:58;;;;;;;4.60;3.37;;;20.50;52.90;;;;;;4994075;28;20483;-73
2022/08/12 00:57:34;;;;;;;5.53;3.53;;;20.50;53.20;;;;;;5007653;28;20476;-71
2022/08/12 01:00:07;;;;;;;4.67;3.40;;;20.40;53.30;;;;;;5006150;28;20957;-72
2022/08/12 01:02:37;;;;;;;7.33;3.40;;;20.30;53.40;;;;;;5004453;28;20517;-72
2022/08/12 01:13:46;;;;;;;5.40;3.73;;;20.30;53.80;;;;;;5005413;28;20450;-72
2022/08/12 01:16:21;;;;;;;9.20;4.00;;;20.30;54.10;;;;;;5009667;28;20437;-72
2022/08/12 01:18:50;;;;;;;5.80;3.70;;;20.30;54.20;;;;;;5011309;28;20420;-72
2022/08/12 01:21:54;;;;;;;7.50;3.93;;;20.30;54.10;;;;;;5019775;28;20440;-72
2022/08/12 01:24:53;;;;;;;8.60;4.67;;;20.30;54.50;;;;;;5008038;28;20465;-72
2022/08/12 01:27:21;;;;;;;4.50;3.17;;;20.30;54.50;;;;;;5003357;28;20458;-73
2022/08/12 01:29:50;;;;;;;4.00;3.10;;;20.20;54.90;;;;;;5014738;28;20438;-73
2022/08/12 01:32:19;;;;;;;5.90;4.00;;;20.20;55.00;;;;;;5015376;28;20422;-72
2022/08/12 01:34:53;;;;;;;4.77;3.60;;;20.20;55.30;;;;;;5007705;28;20425;-72
2022/08/12 01:37:23;;;;;;;5.70;3.53;;;20.20;55.40;;;;;;5013283;28;20465;-71
2022/08/12 01:39:57;;;;;;;4.43;3.30;;;20.10;55.60;;;;;;5017447;28;20763;-72
2022/08/12 01:42:25;;;;;;;6.27;3.90;;;20.10;55.70;;;;;;5000925;28;20436;-72
2022/08/12 01:44:52;;;;;;;4.17;3.10;;;20.00;56.00;;;;;;5018428;28;20822;-72
2022/08/12 01:47:29;;;;;;;6.30;3.60;;;20.00;56.10;;;;;;5017305;28;20974;-72
2022/08/12 01:50:04;;;;;;;5.10;3.77;;;19.90;56.50;;;;;;5016589;28;20934;-71
2022/08/12 01:52:40;;;;;;;5.30;4.00;;;19.80;56.80;;;;;;5016681;28;20780;-71
2022/08/12 01:55:06;;;;;;;7.20;4.17;;;19.70;57.30;;;;;;5005038;28;20450;-71
2022/08/12 01:57:43;;;;;;;9.33;3.67;;;19.60;57.60;;;;;;5010662;28;20453;-72
2022/08/12 02:00:15;;;;;;;4.53;3.57;;;19.60;57.70;;;;;;5009959;28;20408;-73
2022/08/12 02:02:52;;;;;;;4.03;3.67;;;19.50;58.00;;;;;;5020012;28;20409;-72
2022/08/12 02:11:55;;;;;;;4.30;3.53;;;19.40;58.50;;;;;;5016944;28;20418;-72
2022/08/12 02:14:39;;;;;;;7.37;4.90;;;19.40;58.80;;;;;;5003283;28;20416;-73
2022/08/12 02:17:07;;;;;;;4.00;3.60;;;19.40;58.70;;;;;;5005301;28;20586;-72
2022/08/12 02:19:55;;;;;;;6.17;3.60;;;19.40;58.90;;;;;;5013524;28;20425;-72
2022/08/12 02:22:27;;;;;;;4.87;3.73;;;19.40;59.20;;;;;;5019858;28;20427;-73
2022/08/12 02:25:32;;;;;;;5.83;3.53;;;19.40;59.20;;;;;;4996958;28;20585;-73
2022/08/12 02:27:59;;;;;;;4.03;3.60;;;19.30;59.50;;;;;;5009011;28;20480;-73
2022/08/12 02:30:28;;;;;;;5.77;4.33;;;19.30;59.60;;;;;;5014778;28;20425;-72
2022/08/12 02:32:55;;;;;;;4.50;3.60;;;19.30;59.70;;;;;;5017596;28;20443;-72
2022/08/12 02:35:24;;;;;;;5.37;3.90;;;19.20;60.00;;;;;;5022716;28;21128;-73
2022/08/12 02:37:54;;;;;;;8.63;4.30;;;19.20;60.10;;;;;;5014269;28;20567;-73
2022/08/12 02:40:22;;;;;;;3.97;3.80;;;19.20;60.10;;;;;;5027753;28;20427;-72
2022/08/12 02:43:02;;;;;;;7.57;4.10;;;19.20;60.30;;;;;;5028591;28;20440;-73
2022/08/12 02:45:37;;;;;;;5.57;3.83;;;19.20;60.30;;;;;;5025408;28;20426;-73
2022/08/12 02:48:06;;;;;;;5.33;3.30;;;19.10;60.40;;;;;;5013631;28;20539;-73
2022/08/12 02:50:38;;;;;;;6.30;4.00;;;19.00;60.40;;;;;;5019419;28;20444;-72
2022/08/12 02:53:04;;;;;;;4.60;3.50;;;19.00;60.70;;;;;;4992820;28;20488;-71
2022/08/12 02:55:33;;;;;;;4.57;3.60;;;19.00;60.60;;;;;;5023461;28;20433;-72
2022/08/12 02:58:00;;;;;;;6.47;4.13;;;19.10;60.60;;;;;;5009759;28;20512;-71
2022/08/12 03:00:27;;;;;;;5.73;4.20;;;19.10;60.60;;;;;;5005532;28;20778;-72
2022/08/12 03:02:55;;;;;;;5.10;3.47;;;19.00;60.70;;;;;;5015917;28;20532;-73
2022/08/12 03:05:23;;;;;;;5.40;3.80;;;19.00;61.00;;;;;;5005761;28;20455;-72
2022/08/12 03:07:52;;;;;;;6.00;3.80;;;19.00;61.20;;;;;;5016432;28;20459;-72
2022/08/12 03:10:21;;;;;;;4.53;3.83;;;19.00;61.30;;;;;;5023705;28;20489;-73
2022/08/12 03:12:52;;;;;;;6.40;4.13;;;19.00;61.30;;;;;;5013997;28;20434;-72
2022/08/12 03:15:21;;;;;;;9.07;4.13;;;19.00;61.30;;;;;;5020278;28;20420;-72
2022/08/12 03:17:53;;;;;;;4.90;3.67;;;19.00;61.60;;;;;;5013596;28;20830;-72
2022/08/12 03:20:21;;;;;;;5.57;3.60;;;19.00;61.50;;;;;;5012926;28;20476;-75
2022/08/12 03:22:49;;;;;;;4.67;3.80;;;19.00;61.60;;;;;;5018616;28;20420;-72
2022/08/12 03:25:26;;;;;;;5.20;4.03;;;18.90;61.60;;;;;;5015814;28;20922;-73
2022/08/12 03:27:57;;;;;;;6.80;4.30;;;18.80;61.70;;;;;;5014764;28;20460;-73
2022/08/12 03:30:30;;;;;;;5.43;3.63;;;18.80;62.00;;;;;;5016401;28;20906;-73
2022/08/12 03:32:56;;;;;;;4.70;3.80;;;18.70;62.20;;;;;;5014868;28;20447;-72
2022/08/12 03:35:26;;;;;;;7.53;3.90;;;18.70;62.50;;;;;;5014563;28;20774;-72
2022/08/12 03:38:07;;;;;;;7.07;4.10;;;18.70;62.30;;;;;;5009604;28;20974;-72
2022/08/12 04:00:24;;;;;;;6.20;4.13;;;18.40;63.40;;;;;;5024869;28;20510;-72
2022/08/12 04:02:57;;;;;;;6.00;3.87;;;18.40;63.70;;;;;;5020971;28;20912;-73
2022/08/12 04:05:24;;;;;;;6.13;4.07;;;18.40;63.50;;;;;;5019369;28;20441;-72
2022/08/12 04:07:51;;;;;;;5.97;3.83;;;18.40;63.70;;;;;;5006188;28;21035;-73
2022/08/12 04:10:18;;;;;;;5.53;3.70;;;18.30;63.70;;;;;;5020303;28;20815;-73
2022/08/12 04:15:30;;;;;;;6.53;4.40;;;18.30;63.40;;;;;;5014010;28;20557;-72
2022/08/12 04:17:59;;;;;;;6.70;4.23;;;18.30;63.80;;;;;;5011960;28;20926;-74
2022/08/12 04:20:24;;;;;;;7.47;4.03;;;18.20;64.10;;;;;;5019995;28;20507;-72
2022/08/12 04:22:52;;;;;;;5.10;4.13;;;18.30;64.20;;;;;;5015892;28;20921;-72
2022/08/12 04:25:18;;;;;;;6.57;4.70;;;18.30;64.40;;;;;;5011901;28;20567;-72
2022/08/12 04:27:44;;;;;;;5.33;4.20;;;18.10;65.10;;;;;;5016586;28;20499;-72
2022/08/12 04:30:11;;;;;;;8.03;4.90;;;17.90;65.80;;;;;;4999430;28;20945;-73
2022/08/12 04:32:38;;;;;;;6.47;4.20;;;17.80;66.10;;;;;;5019405;28;20420;-72
2022/08/12 04:35:04;;;;;;;6.40;4.37;;;17.80;66.30;;;;;;5018416;28;20421;-72
2022/08/12 04:37:30;;;;;;;7.43;4.30;;;17.90;66.00;;;;;;5015085;28;20809;-72
2022/08/12 04:39:58;;;;;;;4.90;4.10;;;17.80;66.00;;;;;;5004970;28;20537;-71
2022/08/12 04:42:24;;;;;;;6.27;4.43;;;17.90;66.10;;;;;;5019155;28;20241;-72
2022/08/12 04:44:50;;;;;;;8.90;5.00;;;17.90;65.70;;;;;;5020247;28;20475;-73
2022/08/12 04:47:18;;;;;;;7.27;4.93;;;18.00;65.60;;;;;;5013914;28;20462;-71
2022/08/12 04:49:45;;;;;;;8.77;4.60;;;18.00;65.60;;;;;;5012550;28;20429;-73
2022/08/12 04:52:11;;;;;;;11.37;4.30;;;18.00;65.40;;;;;;5025841;28;20461;-70
2022/08/12 04:54:37;;;;;;;5.20;4.23;;;18.10;65.00;;;;;;5012465;28;20445;-74
2022/08/12 04:57:04;;;;;;;6.17;3.77;;;18.10;65.00;;;;;;5009560;28;20544;-72
2022/08/12 04:59:31;;;;;;;9.40;4.60;;;18.10;64.70;;;;;;5018465;28;20183;-71
2022/08/12 05:01:57;;;;;;;5.73;3.93;;;18.10;64.70;;;;;;5004243;28;20449;-71
2022/08/12 05:04:26;;;;;;;5.07;3.97;;;18.10;64.80;;;;;;5012564;28;20673;-71
2022/08/12 05:06:52;;;;;;;9.73;4.17;;;18.20;64.70;;;;;;5010250;28;20204;-71
2022/08/12 05:09:18;;;;;;;5.07;4.43;;;18.20;64.40;;;;;;5011482;28;20450;-70
2022/08/12 05:11:46;;;;;;;9.83;4.63;;;18.20;64.40;;;;;;5021515;28;20433;-70
2022/08/12 05:14:12;;;;;;;7.03;4.50;;;18.30;64.50;;;;;;5016440;28;20225;-72
2022/08/12 05:16:38;;;;;;;5.73;4.50;;;18.30;64.40;;;;;;5005233;28;20519;-72
2022/08/12 05:19:12;;;;;;;6.30;4.40;;;18.30;64.40;;;;;;5062117;28;20535;-72
2022/08/12 05:21:39;;;;;;;5.33;4.30;;;18.30;64.40;;;;;;5059122;28;20428;-71
2022/08/12 05:24:05;;;;;;;6.17;4.47;;;18.30;64.40;;;;;;5053224;28;20187;-73
2022/08/12 05:26:30;;;;;;;9.37;4.70;;;18.40;64.40;;;;;;5051956;28;20832;-71
2022/08/12 05:28:56;;;;;;;11.53;5.10;;;18.40;64.50;;;;;;5055933;28;20262;-74
2022/08/12 05:31:22;;;;;;;7.03;4.70;;;18.40;63.70;;;;;;5054100;28;20185;-71
2022/08/12 05:33:47;;;;;;;6.27;4.60;;;18.40;64.20;;;;;;5062212;28;20191;-73
2022/08/12 05:36:16;;;;;;;5.43;4.17;;;18.50;63.90;;;;;;5055094;28;20462;-72
2022/08/12 05:38:56;;;;;;;6.37;5.07;;;18.60;63.10;;;;;;5055595;28;20219;-73
2022/08/12 05:41:27;;;;;;;6.33;4.43;;;18.70;62.80;;;;;;5060492;28;20468;-72
2022/08/12 05:43:56;;;;;;;7.20;4.73;;;18.80;62.30;;;;;;5054107;28;20492;-71
2022/08/12 05:46:23;;;;;;;8.83;4.93;;;18.90;62.20;;;;;;5056756;28;20558;-72
2022/08/12 05:48:51;;;;;;;12.87;6.00;;;19.00;62.20;;;;;;5052399;28;20501;-73
2022/08/12 05:51:17;;;;;;;6.37;4.67;;;19.10;61.70;;;;;;5057807;28;20422;-73
2022/08/12 05:53:43;;;;;;;6.50;4.27;;;19.10;61.70;;;;;;5056537;28;20465;-71
2022/08/12 05:56:24;;;;;;;6.87;4.73;;;19.10;61.30;;;;;;5058531;28;20491;-71
2022/08/12 05:58:51;;;;;;;7.93;5.27;;;19.20;61.50;;;;;;5060918;28;20571;-72
2022/08/12 06:01:19;;;;;;;6.20;4.43;;;19.20;61.50;;;;;;5060023;28;20438;-74
2022/08/12 06:03:45;;;;;;;7.07;5.13;;;19.30;61.50;;;;;;5057116;28;20435;-73
2022/08/12 06:06:13;;;;;;;9.90;5.33;;;19.40;61.00;;;;;;5065638;28;20457;-74
2022/08/12 06:08:43;;;;;;;11.87;5.10;;;19.40;61.00;;;;;;5066499;28;20519;-72
2022/08/12 06:11:09;;;;;;;6.30;5.20;;;19.50;60.70;;;;;;5058006;28;20991;-74
2022/08/12 06:13:37;;;;;;;6.40;5.00;;;19.50;60.30;;;;;;5058655;28;20431;-73
2022/08/12 06:16:03;;;;;;;8.90;5.20;;;19.60;60.30;;;;;;5062761;28;20660;-72
2022/08/12 06:18:30;;;;;;;9.40;5.10;;;19.60;60.30;;;;;;5060425;28;20479;-72
2022/08/12 06:20:58;;;;;;;12.87;5.20;;;19.60;59.90;;;;;;5065507;28;20800;-71
2022/08/12 06:23:28;;;;;;;7.60;4.60;;;19.60;59.90;;;;;;5062249;28;20454;-74
2022/08/12 06:25:55;;;;;;;8.47;4.73;;;19.70;59.60;;;;;;5059076;28;21052;-71
2022/08/12 06:28:21;;;;;;;7.53;5.20;;;19.80;59.30;;;;;;5057098;28;20442;-72
2022/08/12 06:30:47;;;;;;;8.83;4.60;;;19.90;58.90;;;;;;5053151;28;20467;-74
2022/08/12 06:33:13;;;;;;;8.93;5.50;;;19.80;58.50;;;;;;5044989;28;20965;-73
2022/08/12 06:35:43;;;;;;;11.13;5.40;;;19.90;58.70;;;;;;5045862;28;20460;-72
2022/08/12 06:38:17;;;;;;;14.93;5.30;;;19.90;58.50;;;;;;5042498;28;20223;-74
2022/08/12 06:43:28;;;;;;;8.90;4.60;;;20.00;58.40;;;;;;5048931;28;20427;-74
2022/08/12 06:45:56;;;;;;;7.80;5.07;;;20.20;58.10;;;;;;5051313;28;20411;-74
2022/08/12 06:48:26;;;;;;;9.80;4.87;;;20.20;57.70;;;;;;5047618;28;20610;-73
2022/08/12 06:50:53;;;;;;;6.77;4.13;;;20.30;57.30;;;;;;5045026;28;20448;-73
2022/08/12 06:53:19;;;;;;;10.73;4.83;;;20.30;57.40;;;;;;5045452;28;20420;-75
2022/08/12 06:55:44;;;;;;;8.90;5.07;;;20.30;57.40;;;;;;5047912;28;20428;-73
2022/08/12 06:58:10;;;;;;;5.83;4.40;;;20.40;57.20;;;;;;5044427;28;20209;-72
2022/08/12 07:00:36;;;;;;;5.73;4.30;;;20.50;57.40;;;;;;5043059;28;20517;-72
2022/08/12 07:03:04;;;;;;;6.73;4.83;;;20.60;57.20;;;;;;5054280;28;20287;-74
2022/08/12 07:05:30;;;;;;;6.97;4.40;;;20.70;56.40;;;;;;5047049;28;20428;-73
2022/08/12 07:07:58;;;;;;;10.53;5.23;;;20.80;55.80;;;;;;5048221;28;20517;-73
2022/08/12 07:10:25;;;;;;;10.87;5.37;;;20.90;55.40;;;;;;5052307;28;20420;-73
2022/08/12 07:12:55;;;;;;;6.60;5.13;;;21.00;55.20;;;;;;5039746;28;20436;-73
2022/08/12 07:15:25;;;;;;;7.57;4.87;;;21.10;54.40;;;;;;5044595;28;20445;-73
2022/08/12 07:20:34;;;;;;;6.47;4.33;;;21.30;53.60;;;;;;5049173;28;20528;-72
2022/08/12 07:23:02;;;;;;;19.00;5.80;;;21.40;53.00;;;;;;5039332;28;20452;-72
2022/08/12 07:25:31;;;;;;;10.50;4.60;;;21.50;52.60;;;;;;5048386;28;20517;-74
2022/08/12 07:28:23;;;;;;;6.20;4.13;;;21.60;52.60;;;;;;5048100;28;20491;-72
2022/08/12 07:30:50;;;;;;;5.30;3.87;;;21.60;52.50;;;;;;5048105;28;20990;-72
2022/08/12 07:33:22;;;;;;;13.80;4.67;;;21.70;52.20;;;;;;5042397;28;20433;-73
2022/08/12 07:35:49;;;;;;;11.83;5.00;;;21.80;52.10;;;;;;5041226;28;20892;-72
2022/08/12 07:38:32;;;;;;;5.50;3.80;;;21.80;52.10;;;;;;5044393;28;20502;-73
2022/08/12 07:41:26;;;;;;;8.57;4.90;;;21.90;51.60;;;;;;5045228;28;20430;-74
2022/08/12 07:43:53;;;;;;;7.23;4.63;;;22.00;51.60;;;;;;5044469;28;20850;-74
2022/08/12 07:46:25;;;;;;;7.63;4.63;;;22.10;51.20;;;;;;5034652;28;20473;-72
2022/08/12 07:48:53;;;;;;;7.97;4.20;;;22.10;51.30;;;;;;5045344;28;20955;-73
2022/08/12 07:51:21;;;;;;;5.00;3.90;;;22.10;51.00;;;;;;5046028;28;20940;-74
2022/08/12 07:53:48;;;;;;;11.40;4.10;;;22.10;50.70;;;;;;5043430;28;21147;-72
2022/08/12 07:56:15;;;;;;;6.20;3.73;;;22.20;51.00;;;;;;5036118;28;20521;-71
2022/08/12 07:58:41;;;;;;;5.57;4.00;;;22.30;50.60;;;;;;5050633;28;20555;-74
2022/08/12 08:01:16;;;;;;;6.10;3.73;;;22.40;50.50;;;;;;5038927;28;20520;-74
2022/08/12 08:06:31;;;;;;;7.70;4.10;;;22.70;49.80;;;;;;5033612;28;20816;-72
2022/08/12 08:08:58;;;;;;;7.53;4.00;;;22.80;49.40;;;;;;5044572;28;20444;-72
2022/08/12 08:14:09;;;;;;;5.90;3.60;;;23.00;49.00;;;;;;5042561;28;20529;-74
2022/08/12 08:16:36;;;;;;;5.17;4.30;;;23.10;48.10;;;;;;5048329;28;20491;-73
2022/08/12 08:19:03;;;;;;;7.73;4.10;;;23.10;47.90;;;;;;5048747;28;20512;-71
2022/08/12 08:21:31;;;;;;;7.50;3.80;;;23.20;47.80;;;;;;5044769;28;20441;-73
2022/08/12 08:24:16;;;;;;;6.80;4.13;;;23.30;47.40;;;;;;5045590;28;20817;-75
2022/08/12 08:26:48;;;;;;;9.97;3.97;;;23.20;47.30;;;;;;5043193;28;20460;-74
2022/08/12 08:29:20;;;;;;;6.17;3.87;;;23.30;47.10;;;;;;5041581;28;20438;-72
2022/08/12 08:31:49;;;;;;;5.60;4.03;;;23.40;46.70;;;;;;5052241;28;20438;-74
2022/08/12 08:34:16;;;;;;;7.13;3.77;;;23.40;47.10;;;;;;5039502;28;20444;-73
2022/08/12 08:36:42;;;;;;;7.57;3.80;;;23.50;47.00;;;;;;5040866;28;20451;-73
2022/08/12 08:39:11;;;;;;;7.57;3.67;;;23.50;46.70;;;;;;5051064;28;20487;-72
2022/08/12 08:44:21;;;;;;;7.90;3.50;;;23.70;46.10;;;;;;5043812;28;20930;-73
2022/08/12 08:46:48;;;;;;;5.37;3.37;;;23.80;45.30;;;;;;5042161;28;20444;-74
2022/08/12 08:49:14;;;;;;;6.93;3.50;;;24.00;45.40;;;;;;5043503;28;20201;-72
2022/08/12 08:51:41;;;;;;;6.70;3.30;;;24.10;43.90;;;;;;5037588;28;20503;-72
2022/08/12 08:54:11;;;;;;;4.73;3.30;;;24.20;43.40;;;;;;5043543;28;20490;-72
2022/08/12 08:56:42;;;;;;;4.10;3.27;;;24.30;43.20;;;;;;5043229;28;20469;-72
2022/08/12 08:59:08;;;;;;;5.03;3.60;;;24.40;43.00;;;;;;5037675;28;20966;-74
2022/08/12 09:01:33;;;;;;;7.30;3.80;;;24.40;42.70;;;;;;5043020;28;20561;-74
2022/08/12 09:03:59;;;;;;;7.10;4.20;;;24.40;42.80;;;;;;5046852;28;20817;-73
2022/08/12 09:06:25;;;;;;;4.60;3.53;;;24.40;42.00;;;;;;5044056;28;20200;-72
2022/08/12 09:08:50;;;;;;;4.50;3.50;;;24.50;41.50;;;;;;5042087;28;20636;-74
2022/08/12 09:14:01;;;;;;;4.77;3.73;;;24.70;40.30;;;;;;5046188;28;20282;-74
2022/08/12 09:16:27;;;;;;;3.90;3.17;;;24.70;40.30;;;;;;5043638;28;20466;-73
2022/08/12 09:18:53;;;;;;;6.23;3.20;;;24.80;40.00;;;;;;5044248;28;20538;-73
2022/08/12 09:21:20;;;;;;;4.30;3.60;;;24.80;39.90;;;;;;5045253;28;20181;-75
2022/08/12 09:23:48;;;;;;;4.90;3.30;;;24.90;39.80;;;;;;5037960;28;20852;-73
2022/08/12 09:26:17;;;;;;;8.83;3.50;;;25.00;39.20;;;;;;5046207;28;20522;-72
2022/08/12 09:28:46;;;;;;;5.27;3.53;;;25.00;39.50;;;;;;5049706;28;20415;-72
2022/08/12 09:31:11;;;;;;;4.93;3.20;;;25.00;38.60;;;;;;5034181;28;20965;-73
2022/08/12 09:33:37;;;;;;;5.00;3.50;;;25.00;38.30;;;;;;5044662;28;20429;-73
2022/08/12 09:36:03;;;;;;;8.77;3.60;;;25.10;38.30;;;;;;5049382;28;20220;-71
2022/08/12 09:38:29;;;;;;;4.70;3.10;;;25.10;38.20;;;;;;5037908;28;20215;-73
2022/08/12 09:40:56;;;;;;;6.07;4.07;;;25.20;38.00;;;;;;5039983;28;20791;-75
2022/08/12 09:46:07;;;;;;;6.13;3.60;;;25.30;37.90;;;;;;5037478;28;20440;-72
2022/08/12 09:48:33;;;;;;;3.40;2.70;;;25.40;37.60;;;;;;5040229;28;20455;-73
2022/08/12 09:50:59;;;;;;;6.20;3.87;;;25.30;36.70;;;;;;5048982;28;20181;-74
2022/08/12 09:53:25;;;;;;;8.00;3.70;;;25.30;37.40;;;;;;5043513;28;20434;-71
2022/08/12 09:55:56;;;;;;;5.03;3.30;;;25.40;37.10;;;;;;5040889;28;20683;-74
2022/08/12 09:58:28;;;;;;;4.70;3.50;;;25.50;37.20;;;;;;5046649;28;20468;-73
2022/08/12 10:01:05;;;;;;;6.97;4.10;;;25.40;37.50;;;;;;5043338;28;20434;-72
2022/08/12 10:03:33;;;;;;;5.20;2.83;;;25.40;37.80;;;;;;5045069;28;20452;-73
2022/08/12 10:06:01;;;;;;;3.60;3.00;;;25.40;37.90;;;;;;5045078;28;20541;-74
2022/08/12 10:08:30;;;;;;;8.50;3.03;;;25.50;38.30;;;;;;5044649;28;20484;-73
2022/08/12 10:13:45;;;;;;;4.50;3.53;;;25.70;37.20;;;;;;5048902;28;20420;-74
2022/08/12 10:16:17;;;;;;;4.77;3.23;;;25.70;36.70;;;;;;5056960;28;20417;-74
2022/08/12 10:18:55;;;;;;;3.90;3.00;;;25.70;37.00;;;;;;5044567;28;20552;-74
2022/08/12 10:21:22;;;;;;;4.67;3.37;;;25.80;36.80;;;;;;5053406;28;20465;-73
2022/08/12 10:23:50;;;;;;;4.87;2.63;;;26.00;36.60;;;;;;5052878;28;20441;-72
2022/08/12 10:31:50;;;;;;;3.77;2.93;;;26.50;36.20;;;;;;5052646;28;20429;-74
2022/08/12 10:34:17;;;;;;;4.57;3.57;;;26.80;36.20;;;;;;5049232;28;20500;-73
2022/08/12 10:36:43;;;;;;;5.90;3.60;;;27.10;35.50;;;;;;5042808;28;20457;-73
2022/08/12 10:39:12;;;;;;;6.53;3.80;;;27.10;35.70;;;;;;5042102;28;20468;-73
2022/08/12 10:44:22;;;;;;;4.00;3.40;;;26.80;35.90;;;;;;5046609;28;20418;-72
2022/08/12 10:46:51;;;;;;;5.30;3.37;;;26.60;36.30;;;;;;5038989;28;20457;-72
2022/08/12 10:49:18;;;;;;;4.00;3.07;;;26.80;36.30;;;;;;5035895;28;20469;-72
2022/08/12 10:51:47;;;;;;;7.03;3.70;;;27.20;35.70;;;;;;5041479;28;21252;-74
2022/08/12 10:54:15;;;;;;;4.73;3.00;;;27.60;34.10;;;;;;5039576;28;20958;-73
2022/08/12 10:56:44;;;;;;;3.83;2.90;;;27.70;33.50;;;;;;5038627;28;20458;-72
2022/08/12 10:59:09;;;;;;;4.57;3.30;;;27.80;33.20;;;;;;5040369;28;20561;-72
2022/08/12 11:01:35;;;;;;;3.37;2.83;;;27.30;33.70;;;;;;5047379;28;20506;-72
2022/08/12 11:04:02;;;;;;;4.67;3.23;;;27.20;33.90;;;;;;5037646;28;20184;-73
2022/08/12 11:06:28;;;;;;;6.20;3.37;;;27.40;33.60;;;;;;5040875;28;20204;-73
2022/08/12 11:08:55;;;;;;;4.97;3.80;;;27.90;33.30;;;;;;5036897;28;20431;-73
2022/08/12 11:11:21;;;;;;;3.80;3.10;;;28.30;31.90;;;;;;5040903;28;20428;-72
2022/08/12 11:13:47;;;;;;;6.43;2.73;;;27.90;32.80;;;;;;5042570;28;20446;-72
2022/08/12 11:16:16;;;;;;;10.20;3.00;;;27.90;32.90;;;;;;5039832;28;20195;-71
2022/08/12 11:18:42;;;;;;;4.40;2.70;;;27.60;32.90;;;;;;5044394;28;20217;-72
2022/08/12 11:21:08;;;;;;;5.90;3.60;;;27.70;32.70;;;;;;5053726;28;20439;-72
2022/08/12 11:23:33;;;;;;;6.17;3.27;;;27.70;32.90;;;;;;5045790;28;20427;-74
2022/08/12 11:25:59;;;;;;;4.30;2.97;;;27.80;32.70;;;;;;5044047;28;20193;-72
2022/08/12 11:28:25;;;;;;;4.33;3.30;;;27.70;32.50;;;;;;5048206;28;20200;-72
2022/08/12 11:30:51;;;;;;;7.13;3.30;;;27.90;32.30;;;;;;5050210;28;20189;-73
2022/08/12 11:33:16;;;;;;;4.87;2.90;;;27.70;32.10;;;;;;5050221;28;20547;-73
2022/08/12 11:35:42;;;;;;;4.10;2.73;;;27.60;32.40;;;;;;5036664;28;20296;-72
2022/08/12 11:38:09;;;;;;;3.60;2.90;;;27.90;31.70;;;;;;5045380;28;20212;-73
2022/08/12 11:40:35;;;;;;;3.63;2.73;;;27.50;31.70;;;;;;5034602;28;20185;-73
2022/08/12 11:43:01;;;;;;;7.63;2.80;;;27.30;31.90;;;;;;5047837;28;20781;-74
2022/08/12 11:45:28;;;;;;;3.40;2.70;;;27.60;32.00;;;;;;5040053;28;20423;-72
2022/08/12 11:47:55;;;;;;;4.40;3.30;;;27.50;32.00;;;;;;5038022;28;20634;-74
2022/08/12 11:50:22;;;;;;;3.73;2.93;;;27.10;32.70;;;;;;5036589;28;20438;-73
2022/08/12 11:52:49;;;;;;;4.83;2.90;;;27.00;33.20;;;;;;5046187;28;20438;-74
2022/08/12 11:55:15;;;;;;;4.37;2.87;;;27.20;32.40;;;;;;5036414;28;20434;-73
2022/08/12 11:57:50;;;;;;;4.63;2.77;;;27.50;31.90;;;;;;5046016;28;20506;-72
2022/08/12 12:00:16;;;;;;;6.20;2.73;;;27.50;31.50;;;;;;5045004;28;20430;-73
2022/08/12 12:02:42;;;;;;;3.37;3.00;;;27.40;31.90;;;;;;5045920;28;20416;-76
2022/08/12 12:05:08;;;;;;;5.10;3.00;;;27.60;30.70;;;;;;5044074;28;20423;-73
2022/08/12 12:07:40;;;;;;;4.37;2.43;;;27.70;30.50;;;;;;5045885;28;20215;-73
2022/08/12 12:10:06;;;;;;;5.43;3.10;;;28.20;30.90;;;;;;5046000;28;20181;-73
2022/08/12 12:12:32;;;;;;;4.60;3.33;;;28.50;30.30;;;;;;5041562;28;20804;-72
2022/08/12 12:14:58;;;;;;;3.17;2.67;;;28.40;30.30;;;;;;5044831;28;20431;-72
2022/08/12 12:17:25;;;;;;;4.30;3.33;;;28.30;29.90;;;;;;5045569;28;20224;-74
2022/08/12 12:19:51;;;;;;;3.40;2.87;;;28.40;29.90;;;;;;5048946;28;20192;-75
2022/08/12 12:22:17;;;;;;;3.17;2.73;;;28.50;29.40;;;;;;5045836;28;20415;-73
2022/08/12 12:24:46;;;;;;;4.50;3.40;;;28.80;29.50;;;;;;5049034;28;20998;-74
2022/08/12 12:27:12;;;;;;;3.97;2.80;;;28.90;29.40;;;;;;5043941;28;20832;-73
2022/08/12 12:29:37;;;;;;;5.33;3.20;;;29.20;29.40;;;;;;5047276;28;20427;-73
2022/08/12 12:32:03;;;;;;;4.50;2.60;;;29.20;28.90;;;;;;5043419;28;20424;-73
2022/08/12 12:34:29;;;;;;;3.17;2.70;;;29.20;28.80;;;;;;5040549;28;20193;-72
2022/08/12 12:36:54;;;;;;;3.43;2.80;;;29.20;28.50;;;;;;5041406;28;20213;-74
2022/08/12 12:39:20;;;;;;;5.30;2.83;;;29.40;28.50;;;;;;5045066;28;20216;-73
2022/08/12 12:41:46;;;;;;;4.50;2.73;;;29.90;28.00;;;;;;5047721;28;20221;-72
2022/08/12 12:44:11;;;;;;;7.07;3.87;;;30.50;27.30;;;;;;5044041;28;20182;-75
2022/08/12 12:46:37;;;;;;;4.33;2.80;;;31.00;26.90;;;;;;5034005;28;20664;-74
2022/08/12 12:49:03;;;;;;;3.37;3.00;;;31.20;26.30;;;;;;5045532;28;20196;-72
2022/08/12 12:51:28;;;;;;;6.77;3.10;;;30.80;26.60;;;;;;5032914;28;20197;-74
2022/08/12 12:53:54;;;;;;;13.77;3.50;;;29.90;28.10;;;;;;5041196;28;20296;-73
2022/08/12 12:56:22;;;;;;;4.37;3.07;;;29.20;29.10;;;;;;5035694;28;20208;-72
2022/08/12 12:58:50;;;;;;;3.20;2.60;;;28.70;29.90;;;;;;5038688;28;20495;-73
2022/08/12 13:01:24;;;;;;;4.20;3.23;;;28.40;30.50;;;;;;5056206;28;20435;-73
2022/08/12 13:03:52;;;;;;;11.13;3.07;;;28.20;30.90;;;;;;5046618;28;20427;-72
2022/08/12 13:06:24;;;;;;;5.07;3.03;;;28.30;30.70;;;;;;5041376;28;20439;-74
2022/08/12 13:08:54;;;;;;;9.93;3.30;;;28.70;30.10;;;;;;5044138;28;20431;-72
2022/08/12 13:11:20;;;;;;;3.50;2.50;;;28.80;30.30;;;;;;5043355;28;20450;-74
2022/08/12 13:13:52;;;;;;;4.40;3.00;;;29.20;29.80;;;;;;5043953;28;20486;-73
2022/08/12 13:16:21;;;;;;;4.90;3.10;;;29.80;29.00;;;;;;5036780;28;20527;-73
2022/08/12 13:18:53;;;;;;;5.63;3.37;;;29.90;28.80;;;;;;5041809;28;20479;-74
2022/08/12 13:21:18;;;;;;;4.50;2.90;;;29.40;29.40;;;;;;5047074;28;20454;-72
2022/08/12 13:23:45;;;;;;;3.87;2.63;;;29.10;29.70;;;;;;5042530;28;20420;-72
2022/08/12 13:26:16;;;;;;;3.60;3.03;;;29.80;29.20;;;;;;5045692;28;20204;-72
2022/08/12 13:28:44;;;;;;;6.30;3.00;;;30.60;28.20;;;;;;5034003;28;20424;-72
2022/08/12 13:31:11;;;;;;;5.93;2.90;;;31.20;27.50;;;;;;5041621;28;20443;-73
2022/08/12 13:33:36;;;;;;;5.03;3.20;;;31.70;26.70;;;;;;5041962;28;20415;-73
2022/08/12 13:36:03;;;;;;;3.17;2.67;;;31.50;26.80;;;;;;5041761;28;20521;-71
2022/08/12 13:38:49;;;;;;;2.60;2.40;;;31.70;26.90;;;;;;5039572;28;20680;-72
2022/08/12 13:41:35;;;;;;;3.50;2.33;;;31.70;26.40;;;;;;5044941;28;20442;-73
2022/08/12 13:44:06;;;;;;;5.07;2.70;;;30.90;27.20;;;;;;5045537;28;20510;-73
2022/08/12 13:46:34;;;;;;;4.70;2.60;;;30.60;27.70;;;;;;5039670;28;20463;-72
2022/08/12 13:49:02;;;;;;;4.17;2.80;;;30.40;27.90;;;;;;5042550;28;21316;-72
2022/08/12 13:51:28;;;;;;;4.40;2.77;;;30.30;28.10;;;;;;5036197;28;20788;-71
2022/08/12 13:53:54;;;;;;;4.97;2.93;;;29.80;28.50;;;;;;5044269;28;20451;-72
2022/08/12 13:56:21;;;;;;;3.70;2.63;;;29.70;28.60;;;;;;5035739;28;20236;-72
2022/08/12 13:58:48;;;;;;;6.63;2.90;;;29.60;29.00;;;;;;5045524;28;20696;-72
2022/08/12 14:01:14;;;;;;;7.20;3.23;;;29.90;28.60;;;;;;5041697;28;20428;-74
2022/08/12 14:03:41;;;;;;;3.87;2.50;;;29.70;28.50;;;;;;5045316;28;20465;-70
2022/08/12 14:06:07;;;;;;;6.00;3.10;;;29.40;29.00;;;;;;5034451;28;20874;-72
2022/08/12 14:08:33;;;;;;;6.03;2.97;;;29.40;28.90;;;;;;5045677;28;20455;-71
2022/08/12 14:10:59;;;;;;;3.90;2.60;;;29.30;28.90;;;;;;5045748;28;20536;-72
2022/08/12 14:13:27;;;;;;;5.47;2.57;;;29.40;29.00;;;;;;5046902;28;20521;-71
2022/08/12 14:15:56;;;;;;;3.73;2.90;;;29.50;28.80;;;;;;5034395;28;20190;-74
2022/08/12 14:18:26;;;;;;;3.30;2.97;;;29.50;28.70;;;;;;5041449;28;20485;-71
2022/08/12 14:21:00;;;;;;;3.50;2.67;;;29.60;28.80;;;;;;5034585;28;20435;-73
2022/08/12 14:23:28;;;;;;;3.23;3.00;;;29.70;28.60;;;;;;5042271;28;20427;-75
2022/08/12 14:25:58;;;;;;;3.83;2.53;;;30.20;28.00;;;;;;5047345;28;20446;-72
2022/08/12 14:28:25;;;;;;;4.17;2.90;;;30.40;27.90;;;;;;5039762;28;20447;-72
2022/08/12 14:30:57;;;;;;;4.63;3.10;;;31.00;27.40;;;;;;5041022;28;20428;-71
2022/08/12 14:33:25;;;;;;;6.83;2.87;;;31.30;26.80;;;;;;5035871;28;20436;-73
2022/08/12 14:35:52;;;;;;;3.97;2.70;;;31.20;26.70;;;;;;5037547;28;20444;-72
2022/08/12 14:38:19;;;;;;;2.40;2.10;;;30.90;27.30;;;;;;5034759;28;20476;-72
2022/08/12 14:40:47;;;;;;;3.10;2.40;;;31.30;26.70;;;;;;5042250;28;20494;-72
2022/08/12 14:43:15;;;;;;;6.03;2.53;;;31.20;26.50;;;;;;5037030;28;20908;-73
2022/08/12 14:45:42;;;;;;;3.47;2.63;;;31.50;26.20;;;;;;5036178;28;20519;-73